Terminal Aerodrome Forecast
Issued by NWS Newport/Morehead City, NC

Home | Current Version | Previous Version | Graphics & Text | Print | Product List | Glossary On
Versions: 1 2 3 4 5 6 7 8 9 10 11 12 13 14 15
000
FTUS42 KMHX 290300 AAA
TAFEWN
TAF AMD
KEWN 290358Z 2904/2924 VRB05KT P6SM SCT070
      TEMPO 2904/2907 2SM BR
     FM290700 03002KT 3SM BR SCT008
     FM291300 04008KT P6SM SKC=

USA.gov is the U.S. government's official web portal to all federal, state and local government web resources and services.